createdAt,value
2023-08-22T00:00:41.598Z,22.39
2023-08-22T00:01:44.005Z,22.38
2023-08-22T00:02:46.396Z,22.36
2023-08-22T00:03:48.997Z,22.35
2023-08-22T00:04:52.498Z,22.33
2023-08-22T00:05:56.313Z,22.32
2023-08-22T00:06:58.669Z,22.30
2023-08-22T00:08:01.753Z,22.29
2023-08-22T00:09:06.416Z,22.27
2023-08-22T00:10:10.261Z,22.26
2023-08-22T00:11:12.730Z,22.25
2023-08-22T00:12:15.090Z,22.23
2023-08-22T00:13:17.470Z,22.21
2023-08-22T00:14:19.830Z,22.20
2023-08-22T00:15:22.314Z,22.20
2023-08-22T00:16:24.698Z,22.17
2023-08-22T00:17:27.100Z,22.18
2023-08-22T00:18:29.898Z,22.17
2023-08-22T00:19:32.243Z,22.16
2023-08-22T00:20:34.653Z,22.14
2023-08-22T00:21:37.489Z,22.13
2023-08-22T00:22:40.067Z,22.12
2023-08-22T00:23:42.412Z,22.10
2023-08-22T00:24:45.285Z,22.09
2023-08-22T00:25:47.641Z,22.09
2023-08-22T00:26:50.014Z,22.08
2023-08-22T00:27:52.432Z,22.06
2023-08-22T00:28:54.812Z,22.06
2023-08-22T00:29:58.295Z,22.05
2023-08-22T00:31:00.738Z,22.04
2023-08-22T00:32:05.028Z,22.03
2023-08-22T00:33:07.466Z,22.03
2023-08-22T00:34:11.384Z,22.03
2023-08-22T00:35:13.740Z,22.04
2023-08-22T00:36:16.161Z,22.03
2023-08-22T00:37:20.295Z,22.04
2023-08-22T00:38:22.978Z,22.03
2023-08-22T00:39:26.344Z,22.02
2023-08-22T00:40:29.104Z,22.04
2023-08-22T00:41:31.533Z,22.02
2023-08-22T00:42:34.745Z,22.02
2023-08-22T00:43:38.241Z,22.02
2023-08-22T00:44:40.665Z,22.02
2023-08-22T00:45:44.218Z,22.02
2023-08-22T00:46:47.243Z,22.02
2023-08-22T00:47:49.831Z,22.03
2023-08-22T00:48:52.791Z,22.02
2023-08-22T00:49:55.843Z,22.02
2023-08-22T00:50:58.761Z,22.03
2023-08-22T00:52:03.814Z,22.04
2023-08-22T00:53:08.591Z,22.03
2023-08-22T00:54:15.598Z,22.02
2023-08-22T00:55:18.647Z,22.02
2023-08-22T00:56:21.090Z,22.01
2023-08-22T00:57:23.721Z,22.00
2023-08-22T00:58:26.764Z,22.01
2023-08-22T00:59:29.371Z,22.00
2023-08-22T01:00:32.188Z,22.00
2023-08-22T01:01:35.063Z,21.99
2023-08-22T01:02:40.005Z,21.99
2023-08-22T01:03:42.587Z,21.99
2023-08-22T01:04:45.551Z,21.97
2023-08-22T01:05:54.682Z,21.96
2023-08-22T01:07:12.999Z,21.96
2023-08-22T01:08:21.989Z,21.95
2023-08-22T01:09:32.882Z,21.94
2023-08-22T01:10:39.944Z,21.93
2023-08-22T01:11:50.544Z,21.92
2023-08-22T01:12:59.148Z,21.89
2023-08-22T01:14:06.094Z,21.89
2023-08-22T01:15:19.610Z,21.85
2023-08-22T01:16:22.350Z,21.83
2023-08-22T01:17:25.169Z,21.82
2023-08-22T01:18:28.933Z,21.79
2023-08-22T01:19:31.271Z,21.78
2023-08-22T01:20:35.618Z,21.76
2023-08-22T01:21:52.938Z,21.74
2023-08-22T01:22:57.482Z,21.73
2023-08-22T01:24:00.055Z,21.71
2023-08-22T01:25:02.698Z,21.69
2023-08-22T01:26:05.167Z,21.68
2023-08-22T01:27:12.524Z,21.67
2023-08-22T01:28:41.146Z,21.64
2023-08-22T01:29:52.608Z,21.63
2023-08-22T01:31:08.581Z,21.61
2023-08-22T01:32:20.882Z,21.59
2023-08-22T01:33:34.495Z,21.56
2023-08-22T01:34:39.826Z,21.55
2023-08-22T01:35:46.360Z,21.54
2023-08-22T01:36:53.466Z,21.51
2023-08-22T01:37:57.227Z,21.48
2023-08-22T01:39:05.086Z,21.48
2023-08-22T01:40:09.108Z,21.45
2023-08-22T01:41:11.929Z,21.44
2023-08-22T01:42:14.574Z,21.42
2023-08-22T01:43:17.243Z,21.41
2023-08-22T01:44:19.623Z,21.39
2023-08-22T01:45:22.000Z,21.37
2023-08-22T01:46:25.607Z,21.35
2023-08-22T01:47:28.186Z,21.33
2023-08-22T01:48:30.717Z,21.32
2023-08-22T01:49:37.182Z,21.31
2023-08-22T01:50:39.728Z,21.31
2023-08-22T01:51:42.762Z,21.29
2023-08-22T01:52:45.256Z,21.30
2023-08-22T01:53:47.833Z,21.29
2023-08-22T01:54:50.405Z,21.28
2023-08-22T01:55:52.833Z,21.27
2023-08-22T01:56:55.316Z,21.28
2023-08-22T01:57:57.725Z,21.27
2023-08-22T01:59:00.240Z,21.25
2023-08-22T02:00:04.995Z,21.23
2023-08-22T02:01:15.303Z,21.23
2023-08-22T02:02:17.702Z,21.22
2023-08-22T02:03:22.159Z,21.20
2023-08-22T02:04:24.677Z,21.19
2023-08-22T02:05:27.177Z,21.19
2023-08-22T02:06:29.658Z,21.18
2023-08-22T02:07:36.606Z,21.16
2023-08-22T02:08:40.816Z,21.14
2023-08-22T02:09:43.218Z,21.15
2023-08-22T02:10:45.636Z,21.14
2023-08-22T02:11:47.978Z,21.14
2023-08-22T02:12:50.354Z,21.13
2023-08-22T02:13:52.845Z,21.13
2023-08-22T02:14:55.651Z,21.13
2023-08-22T02:15:58.074Z,21.12
2023-08-22T02:17:00.630Z,21.12
2023-08-22T02:18:03.558Z,21.11
2023-08-22T02:19:07.382Z,21.09
2023-08-22T02:20:10.857Z,21.09
2023-08-22T02:21:13.193Z,21.08
2023-08-22T02:22:16.055Z,21.07
2023-08-22T02:23:20.261Z,21.06
2023-08-22T02:24:22.664Z,21.05
2023-08-22T02:25:25.026Z,21.04
2023-08-22T02:26:27.650Z,21.04
2023-08-22T02:27:30.283Z,21.03
2023-08-22T02:28:32.679Z,21.03
2023-08-22T02:29:35.559Z,21.01
2023-08-22T02:30:38.491Z,21.02
2023-08-22T02:31:40.907Z,21.01
2023-08-22T02:32:43.426Z,21.00
2023-08-22T02:33:45.948Z,20.99
2023-08-22T02:34:48.406Z,21.00
2023-08-22T02:35:50.742Z,20.98
2023-08-22T02:36:53.145Z,20.98
2023-08-22T02:37:55.580Z,20.97
2023-08-22T02:38:57.941Z,20.97
2023-08-22T02:40:00.350Z,20.97
2023-08-22T02:41:03.181Z,20.97
2023-08-22T02:42:05.876Z,20.97
2023-08-22T02:43:08.242Z,20.95
2023-08-22T02:44:10.644Z,20.97
2023-08-22T02:45:13.136Z,20.94
2023-08-22T02:46:15.702Z,20.93
2023-08-22T02:47:20.643Z,20.92
2023-08-22T02:48:23.216Z,20.94
2023-08-22T02:49:25.629Z,20.95
2023-08-22T02:50:28.006Z,20.94
2023-08-22T02:51:30.383Z,20.93
2023-08-22T02:52:33.415Z,20.94
2023-08-22T02:53:35.801Z,20.94
2023-08-22T02:54:38.147Z,20.92
2023-08-22T02:55:41.460Z,20.92
2023-08-22T02:56:43.815Z,20.93
2023-08-22T02:57:46.459Z,20.92
2023-08-22T02:58:48.803Z,20.93
2023-08-22T02:59:51.825Z,20.91
2023-08-22T03:00:55.249Z,20.90
2023-08-22T03:01:58.435Z,20.90
2023-08-22T03:03:00.991Z,20.90
2023-08-22T03:04:03.630Z,20.89
2023-08-22T03:05:09.384Z,20.89
2023-08-22T03:06:11.834Z,20.89
2023-08-22T03:07:14.635Z,20.88
2023-08-22T03:08:17.032Z,20.90
2023-08-22T03:09:19.869Z,20.88
2023-08-22T03:10:22.518Z,20.85
2023-08-22T03:11:26.390Z,20.86
2023-08-22T03:12:30.646Z,20.86
2023-08-22T03:13:33.100Z,20.85
2023-08-22T03:14:35.480Z,20.87
2023-08-22T03:15:37.921Z,20.85
2023-08-22T03:16:40.372Z,20.85
2023-08-22T03:17:43.060Z,20.86
2023-08-22T03:18:45.894Z,20.87
2023-08-22T03:19:48.994Z,20.87
2023-08-22T03:20:54.622Z,20.87
2023-08-22T03:21:57.276Z,20.87
2023-08-22T03:22:59.888Z,20.86
2023-08-22T03:24:02.249Z,20.87
2023-08-22T03:25:05.860Z,20.87
2023-08-22T03:26:12.348Z,20.87
2023-08-22T03:27:16.358Z,20.87
2023-08-22T03:28:18.871Z,20.88
2023-08-22T03:29:21.330Z,20.88
2023-08-22T03:30:23.836Z,20.88
2023-08-22T03:31:28.901Z,20.88
2023-08-22T03:32:31.499Z,20.88
2023-08-22T03:33:36.069Z,20.90
2023-08-22T03:34:42.334Z,20.90
2023-08-22T03:35:44.699Z,20.90
2023-08-22T03:36:47.162Z,20.92
2023-08-22T03:37:50.748Z,20.92
2023-08-22T03:38:53.429Z,20.91
2023-08-22T03:39:56.261Z,20.92
2023-08-22T03:40:58.899Z,20.94
2023-08-22T03:42:01.319Z,20.92
2023-08-22T03:43:04.089Z,20.95
2023-08-22T03:44:06.596Z,20.95
2023-08-22T03:45:10.703Z,20.95
2023-08-22T03:46:21.583Z,20.96
2023-08-22T03:47:27.430Z,20.96
2023-08-22T03:48:30.230Z,20.96
2023-08-22T03:49:32.702Z,20.95
2023-08-22T03:50:35.080Z,20.97
2023-08-22T03:51:37.636Z,20.97
2023-08-22T03:52:40.056Z,20.98
2023-08-22T03:53:42.955Z,20.98
2023-08-22T03:54:45.377Z,20.99
2023-08-22T03:55:47.735Z,21.00
2023-08-22T03:56:50.973Z,21.02
2023-08-22T03:57:53.452Z,21.02
2023-08-22T03:58:55.782Z,21.01
2023-08-22T03:59:58.687Z,21.04
2023-08-22T04:01:06.670Z,21.04
2023-08-22T04:02:10.458Z,21.04
2023-08-22T04:03:12.920Z,21.06
2023-08-22T04:04:16.179Z,21.07
2023-08-22T04:05:18.583Z,21.08
2023-08-22T04:06:21.016Z,21.09
2023-08-22T04:07:23.381Z,21.11
2023-08-22T04:08:26.329Z,21.11
2023-08-22T04:09:28.679Z,21.13
2023-08-22T04:10:31.021Z,21.13
2023-08-22T04:11:33.485Z,21.13
2023-08-22T04:12:35.823Z,21.14
2023-08-22T04:13:38.197Z,21.15
2023-08-22T04:14:40.560Z,21.15
2023-08-22T04:15:42.901Z,21.17
2023-08-22T04:16:45.309Z,21.16
2023-08-22T04:17:49.997Z,21.18
2023-08-22T04:18:53.776Z,21.21
2023-08-22T04:19:56.106Z,21.21
2023-08-22T04:20:58.508Z,21.22
2023-08-22T04:22:00.897Z,21.22
2023-08-22T04:23:03.838Z,21.24
2023-08-22T04:24:06.557Z,21.24
2023-08-22T04:25:12.819Z,21.25
2023-08-22T04:26:16.863Z,21.26
2023-08-22T04:27:19.687Z,21.27
2023-08-22T04:28:23.502Z,21.27
2023-08-22T04:29:26.446Z,21.29
2023-08-22T04:30:28.900Z,21.29
2023-08-22T04:31:31.352Z,21.31
2023-08-22T04:32:34.119Z,21.32
2023-08-22T04:33:38.224Z,21.32
2023-08-22T04:34:40.632Z,21.32
2023-08-22T04:35:43.627Z,21.33
2023-08-22T04:36:45.977Z,21.33
2023-08-22T04:37:48.386Z,21.33
2023-08-22T04:38:53.952Z,21.33
2023-08-22T04:39:58.974Z,21.33
2023-08-22T04:41:30.808Z,21.32
2023-08-22T04:42:44.992Z,21.32
2023-08-22T04:43:48.636Z,21.32
2023-08-22T04:44:51.227Z,21.32
2023-08-22T04:45:54.009Z,21.33
2023-08-22T04:46:57.964Z,21.32
2023-08-22T04:48:00.419Z,21.32
2023-08-22T04:49:03.364Z,21.33
2023-08-22T04:50:07.165Z,21.34
2023-08-22T04:51:09.536Z,21.34
2023-08-22T04:52:12.389Z,21.34
2023-08-22T04:53:14.778Z,21.34
2023-08-22T04:54:17.236Z,21.35
2023-08-22T04:55:19.846Z,21.36
2023-08-22T04:56:23.545Z,21.36
2023-08-22T04:57:26.266Z,21.37
2023-08-22T04:58:28.667Z,21.39
2023-08-22T04:59:31.640Z,21.40
2023-08-22T05:00:34.088Z,21.41
2023-08-22T05:01:36.579Z,21.44
2023-08-22T05:02:39.247Z,21.45
2023-08-22T05:03:41.930Z,21.47
2023-08-22T05:04:44.323Z,21.51
2023-08-22T05:05:47.023Z,21.54
2023-08-22T05:06:49.514Z,21.57
2023-08-22T05:07:51.884Z,21.61
2023-08-22T05:08:54.341Z,21.65
2023-08-22T05:09:56.779Z,21.68
2023-08-22T05:11:00.012Z,21.74
2023-08-22T05:12:02.457Z,21.78
2023-08-22T05:13:05.130Z,21.82
2023-08-22T05:14:09.523Z,21.87
2023-08-22T05:15:12.101Z,21.92
2023-08-22T05:16:14.614Z,21.98
2023-08-22T05:17:17.611Z,22.03
2023-08-22T05:18:20.138Z,22.09
2023-08-22T05:19:23.105Z,22.15
2023-08-22T05:20:25.508Z,22.22
2023-08-22T05:21:27.942Z,22.29
2023-08-22T05:22:30.375Z,22.35
2023-08-22T05:23:32.890Z,22.42
2023-08-22T05:24:35.398Z,22.49
2023-08-22T05:25:38.647Z,22.58
2023-08-22T05:26:41.604Z,22.65
2023-08-22T05:27:44.274Z,22.74
2023-08-22T05:28:46.887Z,22.81
2023-08-22T05:29:49.217Z,22.90
2023-08-22T05:30:51.729Z,22.98
2023-08-22T05:31:54.990Z,23.07
2023-08-22T05:32:57.908Z,23.15
2023-08-22T05:34:00.641Z,23.23
2023-08-22T05:35:03.891Z,23.30
2023-08-22T05:36:06.629Z,23.39
2023-08-22T05:37:09.127Z,23.46
2023-08-22T05:38:11.546Z,23.53
2023-08-22T05:39:13.891Z,23.60
2023-08-22T05:40:16.393Z,23.66
2023-08-22T05:41:19.226Z,23.70
2023-08-22T05:42:22.136Z,23.76
2023-08-22T05:43:24.522Z,23.79
2023-08-22T05:44:27.530Z,23.83
2023-08-22T05:45:30.626Z,23.86
2023-08-22T05:46:33.130Z,23.87
2023-08-22T05:47:36.421Z,23.90
2023-08-22T05:48:38.867Z,23.88
2023-08-22T05:49:44.732Z,23.90
2023-08-22T05:50:49.523Z,23.90
2023-08-22T05:52:02.134Z,23.92
2023-08-22T05:53:04.756Z,23.93
2023-08-22T05:54:07.316Z,23.93
2023-08-22T05:55:10.178Z,23.94
2023-08-22T05:56:14.177Z,23.95
2023-08-22T05:57:16.707Z,23.96
2023-08-22T05:58:19.149Z,23.98
2023-08-22T05:59:24.100Z,24.00
2023-08-22T06:00:26.519Z,24.05
2023-08-22T06:01:31.963Z,24.10
2023-08-22T06:02:34.477Z,24.14
2023-08-22T06:03:40.361Z,24.17
2023-08-22T06:04:46.460Z,24.24
2023-08-22T06:05:49.723Z,24.29
2023-08-22T06:06:53.159Z,24.35
2023-08-22T06:07:55.686Z,24.42
2023-08-22T06:08:58.040Z,24.49
2023-08-22T06:10:02.375Z,24.56
2023-08-22T06:11:04.830Z,24.63
2023-08-22T06:12:09.108Z,24.73
2023-08-22T06:13:12.806Z,24.83
2023-08-22T06:14:16.251Z,24.93
2023-08-22T06:15:19.851Z,25.03
2023-08-22T06:16:22.257Z,25.14
2023-08-22T06:17:26.497Z,25.27
2023-08-22T06:18:29.531Z,25.38
2023-08-22T06:19:31.884Z,25.49
2023-08-22T06:20:39.650Z,25.62
2023-08-22T06:21:41.976Z,25.73
2023-08-22T06:22:44.366Z,25.85
2023-08-22T06:23:46.796Z,25.98
2023-08-22T06:24:49.279Z,26.11
2023-08-22T06:25:51.690Z,26.24
2023-08-22T06:26:54.025Z,26.36
2023-08-22T06:27:56.405Z,26.49
2023-08-22T06:28:59.475Z,26.63
2023-08-22T06:30:04.076Z,26.75
2023-08-22T06:31:09.973Z,26.90
2023-08-22T06:32:15.636Z,27.03
2023-08-22T06:33:18.107Z,27.16
2023-08-22T06:34:22.646Z,27.27
2023-08-22T06:35:26.300Z,27.40
2023-08-22T06:36:28.890Z,27.52
2023-08-22T06:37:32.288Z,27.64
2023-08-22T06:38:34.710Z,27.76
2023-08-22T06:39:37.159Z,27.88
2023-08-22T06:40:39.700Z,27.97
2023-08-22T06:41:42.239Z,28.09
2023-08-22T06:42:47.762Z,28.22
2023-08-22T06:43:52.742Z,28.33
2023-08-22T06:44:58.022Z,28.44
2023-08-22T06:46:01.651Z,28.54
2023-08-22T06:47:04.169Z,28.64
2023-08-22T06:48:06.969Z,28.73
2023-08-22T06:49:09.390Z,28.83
2023-08-22T06:50:11.781Z,28.90
2023-08-22T06:51:14.214Z,28.97
2023-08-22T06:52:16.651Z,29.06
2023-08-22T06:53:19.918Z,29.17
2023-08-22T06:54:22.269Z,29.27
2023-08-22T06:55:24.995Z,29.37
2023-08-22T06:56:27.644Z,29.47
2023-08-22T06:57:29.974Z,29.56
2023-08-22T06:58:32.429Z,29.67
2023-08-22T06:59:34.980Z,29.77
2023-08-22T07:00:37.778Z,29.88
2023-08-22T07:01:40.841Z,29.98
2023-08-22T07:02:45.097Z,30.11
2023-08-22T07:03:50.035Z,30.22
2023-08-22T07:04:58.502Z,30.34
2023-08-22T07:06:01.127Z,30.44
2023-08-22T07:07:03.530Z,30.55
2023-08-22T07:08:06.077Z,30.65
2023-08-22T07:09:08.864Z,30.75
2023-08-22T07:10:14.956Z,30.86
2023-08-22T07:11:18.794Z,30.96
2023-08-22T07:12:21.313Z,31.07
2023-08-22T07:13:23.874Z,31.16
2023-08-22T07:14:26.286Z,31.25
2023-08-22T07:15:30.043Z,31.34
2023-08-22T07:16:32.509Z,31.44
2023-08-22T07:17:35.101Z,31.53
2023-08-22T07:18:37.539Z,31.64
2023-08-22T07:19:42.136Z,31.74
2023-08-22T07:20:46.667Z,31.85
2023-08-22T07:21:49.437Z,31.95
2023-08-22T07:22:52.021Z,32.04
2023-08-22T07:23:54.420Z,32.12
2023-08-22T07:24:56.948Z,32.22
2023-08-22T07:25:59.356Z,32.33
2023-08-22T07:27:01.724Z,32.40
2023-08-22T07:28:04.694Z,32.48
2023-08-22T07:29:07.068Z,32.57
2023-08-22T07:30:09.881Z,32.66
2023-08-22T07:31:12.395Z,32.75
2023-08-22T07:32:14.869Z,32.83
2023-08-22T07:33:17.352Z,32.91
2023-08-22T07:34:19.783Z,32.99
2023-08-22T07:35:22.152Z,33.07
2023-08-22T07:36:25.024Z,33.16
2023-08-22T07:37:27.930Z,33.25
2023-08-22T07:38:30.836Z,33.32
2023-08-22T07:39:33.230Z,33.39
2023-08-22T07:40:39.612Z,33.46
2023-08-22T07:41:42.064Z,33.50
2023-08-22T07:42:44.497Z,33.56
2023-08-22T07:43:46.858Z,33.63
2023-08-22T07:44:49.223Z,33.70
2023-08-22T07:45:51.603Z,33.74
2023-08-22T07:46:54.132Z,33.78
2023-08-22T07:47:56.612Z,33.84
2023-08-22T07:48:59.646Z,33.91
2023-08-22T07:50:02.127Z,33.96
2023-08-22T07:51:04.625Z,34.02
2023-08-22T07:52:07.104Z,34.08
2023-08-22T07:53:09.528Z,34.14
2023-08-22T07:54:11.990Z,34.21
2023-08-22T07:55:14.513Z,34.28
2023-08-22T07:56:16.873Z,34.36
2023-08-22T07:57:19.808Z,34.43
2023-08-22T07:58:22.296Z,34.51
2023-08-22T07:59:24.795Z,34.56
2023-08-22T08:00:27.460Z,34.62
2023-08-22T08:01:29.922Z,34.69
2023-08-22T08:02:32.330Z,34.75
2023-08-22T08:03:34.962Z,34.81
2023-08-22T08:04:37.469Z,34.87
2023-08-22T08:05:39.907Z,34.93
2023-08-22T08:06:42.686Z,34.98
2023-08-22T08:07:45.144Z,35.04
2023-08-22T08:08:47.600Z,35.12
2023-08-22T08:09:49.900Z,35.17
2023-08-22T08:10:52.257Z,35.23
2023-08-22T08:11:54.718Z,35.28
2023-08-22T08:12:57.086Z,35.35
2023-08-22T08:14:00.026Z,35.42
2023-08-22T08:15:03.649Z,35.48
2023-08-22T08:16:07.996Z,35.55
2023-08-22T08:17:10.824Z,35.62
2023-08-22T08:18:13.296Z,35.70
2023-08-22T08:19:17.368Z,35.77
2023-08-22T08:20:19.735Z,35.83
2023-08-22T08:21:22.536Z,35.91
2023-08-22T08:22:24.910Z,35.97
2023-08-22T08:23:28.223Z,36.04
2023-08-22T08:24:30.569Z,36.10
2023-08-22T08:25:32.958Z,36.17
2023-08-22T08:26:35.679Z,36.25
2023-08-22T08:27:38.646Z,36.30
2023-08-22T08:28:41.067Z,36.36
2023-08-22T08:29:43.419Z,36.43
2023-08-22T08:30:45.783Z,36.48
2023-08-22T08:31:48.835Z,36.54
2023-08-22T08:32:51.433Z,36.59
2023-08-22T08:33:56.798Z,36.65
2023-08-22T08:34:59.138Z,36.72
2023-08-22T08:36:01.501Z,36.77
2023-08-22T08:37:05.469Z,36.83
2023-08-22T08:38:08.611Z,36.89
2023-08-22T08:39:11.077Z,36.93
2023-08-22T08:40:14.037Z,36.98
2023-08-22T08:41:19.164Z,37.03
2023-08-22T08:42:21.635Z,37.04
2023-08-22T08:43:24.148Z,37.10
2023-08-22T08:44:28.374Z,37.11
2023-08-22T08:45:31.599Z,37.14
2023-08-22T08:46:35.256Z,37.18
2023-08-22T08:47:37.977Z,37.20
2023-08-22T08:48:41.924Z,37.22
2023-08-22T08:49:44.389Z,37.24
2023-08-22T08:50:47.974Z,37.28
2023-08-22T08:51:50.985Z,37.31
2023-08-22T08:52:53.383Z,37.34
2023-08-22T08:53:56.430Z,37.37
2023-08-22T08:55:00.109Z,37.41
2023-08-22T08:56:04.374Z,37.43
2023-08-22T08:57:06.820Z,37.46
2023-08-22T08:58:09.279Z,37.49
2023-08-22T08:59:11.642Z,37.53
2023-08-22T09:00:16.308Z,37.56
2023-08-22T09:01:19.515Z,37.58
2023-08-22T09:02:21.987Z,37.60
2023-08-22T09:03:25.957Z,37.63
2023-08-22T09:04:29.090Z,37.63
2023-08-22T09:05:32.076Z,37.63
2023-08-22T09:06:34.474Z,37.65
2023-08-22T09:07:37.298Z,37.67
2023-08-22T09:08:40.473Z,37.69
2023-08-22T09:09:43.480Z,37.70
2023-08-22T09:10:53.330Z,37.74
2023-08-22T09:11:56.016Z,37.74
2023-08-22T09:13:03.318Z,37.74
2023-08-22T09:14:06.387Z,37.74
2023-08-22T09:15:10.983Z,37.76
2023-08-22T09:16:13.388Z,37.78
2023-08-22T09:17:19.565Z,37.81
2023-08-22T09:18:22.210Z,37.83
2023-08-22T09:19:24.973Z,37.86
2023-08-22T09:20:29.490Z,37.89
2023-08-22T09:21:32.520Z,37.92
2023-08-22T09:22:35.670Z,37.95
2023-08-22T09:23:37.986Z,37.97
2023-08-22T09:24:50.870Z,38.00
2023-08-22T09:25:53.190Z,38.00
2023-08-22T09:26:56.322Z,38.03
2023-08-22T09:27:59.017Z,38.01
2023-08-22T09:29:08.218Z,38.02
2023-08-22T09:30:13.002Z,38.02
2023-08-22T09:31:25.918Z,38.05
2023-08-22T09:32:28.502Z,38.05
2023-08-22T09:33:45.405Z,38.08
2023-08-22T09:34:56.653Z,38.09
2023-08-22T09:35:59.008Z,38.10
2023-08-22T09:37:01.947Z,38.11
2023-08-22T09:38:08.803Z,38.12
2023-08-22T09:39:14.073Z,38.12
2023-08-22T09:40:17.996Z,38.13
2023-08-22T09:41:26.076Z,38.14
2023-08-22T09:42:31.993Z,38.15
2023-08-22T09:43:34.572Z,38.13
2023-08-22T09:44:37.315Z,38.14
2023-08-22T09:45:43.800Z,38.16
2023-08-22T09:46:50.188Z,38.16
2023-08-22T09:47:57.789Z,38.16
2023-08-22T09:49:02.112Z,38.16
2023-08-22T09:50:08.691Z,38.16
2023-08-22T09:51:12.984Z,38.15
2023-08-22T09:52:16.065Z,38.14
2023-08-22T09:53:21.412Z,38.15
2023-08-22T09:54:24.469Z,38.13
2023-08-22T09:55:27.824Z,38.08
2023-08-22T09:56:32.458Z,38.03
2023-08-22T09:57:36.691Z,37.98
2023-08-22T09:58:40.126Z,37.97
2023-08-22T09:59:42.913Z,37.91
2023-08-22T10:00:46.325Z,37.88
2023-08-22T10:01:49.618Z,37.84
2023-08-22T10:02:52.840Z,37.79
2023-08-22T10:03:56.035Z,37.76
2023-08-22T10:04:58.639Z,37.73
2023-08-22T10:06:02.230Z,37.74
2023-08-22T10:07:04.816Z,37.70
2023-08-22T10:08:07.398Z,37.69
2023-08-22T10:09:11.971Z,37.67
2023-08-22T10:10:15.135Z,37.64
2023-08-22T10:11:19.347Z,37.63
2023-08-22T10:12:23.131Z,37.59
2023-08-22T10:13:25.869Z,37.58
2023-08-22T10:14:59.387Z,37.52
2023-08-22T10:16:02.565Z,37.46
2023-08-22T10:17:05.287Z,37.42
2023-08-22T10:18:07.773Z,37.39
2023-08-22T10:19:10.502Z,37.33
2023-08-22T10:20:13.829Z,37.28
2023-08-22T10:21:18.194Z,37.24
2023-08-22T10:22:20.682Z,37.12
2023-08-22T10:23:54.049Z,37.10
2023-08-22T10:25:03.173Z,37.00
2023-08-22T10:26:05.510Z,36.93
2023-08-22T10:27:16.629Z,36.90
2023-08-22T10:28:19.529Z,36.86
2023-08-22T10:29:21.919Z,36.80
2023-08-22T10:30:24.791Z,36.76
2023-08-22T10:31:27.210Z,36.72
2023-08-22T10:32:29.727Z,36.70
2023-08-22T10:33:35.857Z,36.68
2023-08-22T10:34:44.487Z,36.66
2023-08-22T10:36:09.614Z,36.63
2023-08-22T10:37:29.542Z,36.57
2023-08-22T10:38:49.531Z,36.52
2023-08-22T10:39:51.856Z,36.48
2023-08-22T10:40:55.929Z,36.46
2023-08-22T10:41:58.810Z,36.45
2023-08-22T10:43:13.119Z,36.43
2023-08-22T10:44:20.931Z,36.37
2023-08-22T10:45:23.301Z,36.33
2023-08-22T10:46:58.437Z,36.32
2023-08-22T10:48:13.351Z,36.30
2023-08-22T10:49:21.052Z,36.28
2023-08-22T10:50:23.580Z,36.25
2023-08-22T10:51:43.620Z,36.22
2023-08-22T10:52:46.377Z,36.20
2023-08-22T10:53:49.166Z,36.13
2023-08-22T10:55:13.039Z,36.09
2023-08-22T10:56:21.783Z,36.06
2023-08-22T10:57:25.262Z,36.02
2023-08-22T10:58:35.572Z,35.98
2023-08-22T10:59:59.725Z,35.92
2023-08-22T11:01:05.548Z,35.89
2023-08-22T11:02:07.966Z,35.88
2023-08-22T11:03:10.718Z,35.85
2023-08-22T11:04:14.882Z,35.81
2023-08-22T11:05:17.276Z,35.78
2023-08-22T11:06:21.042Z,35.77
2023-08-22T11:07:23.922Z,35.74
2023-08-22T11:08:27.465Z,35.72
2023-08-22T11:09:30.027Z,35.69
2023-08-22T11:10:33.665Z,35.66
2023-08-22T11:11:36.238Z,35.65
2023-08-22T11:12:39.564Z,35.61
2023-08-22T11:13:43.643Z,35.58
2023-08-22T11:14:50.448Z,35.55
2023-08-22T11:15:52.879Z,35.51
2023-08-22T11:16:55.292Z,35.47
2023-08-22T11:17:57.702Z,35.45
2023-08-22T11:19:00.314Z,35.39
2023-08-22T11:20:02.723Z,35.32
2023-08-22T11:21:05.728Z,35.24
2023-08-22T11:22:08.224Z,35.17
2023-08-22T11:23:12.464Z,35.14
2023-08-22T11:24:14.936Z,35.11
2023-08-22T11:25:24.828Z,35.07
2023-08-22T11:26:27.178Z,35.00
2023-08-22T11:27:29.531Z,34.97
2023-08-22T11:28:36.369Z,34.85
2023-08-22T11:29:45.157Z,34.82
2023-08-22T11:30:52.203Z,34.78
2023-08-22T11:31:54.597Z,34.74
2023-08-22T11:32:56.956Z,34.71
2023-08-22T11:33:59.346Z,34.69
2023-08-22T11:35:06.980Z,34.62
2023-08-22T11:36:09.371Z,34.57
2023-08-22T11:37:12.574Z,34.51
2023-08-22T11:38:15.091Z,34.45
2023-08-22T11:39:17.605Z,34.37
2023-08-22T11:40:22.140Z,34.33
2023-08-22T11:41:24.681Z,34.26
2023-08-22T11:42:30.976Z,34.23
2023-08-22T11:43:33.883Z,34.15
2023-08-22T11:45:12.539Z,34.11
2023-08-22T11:46:15.034Z,33.99
2023-08-22T11:47:17.762Z,33.97
2023-08-22T11:48:24.397Z,33.88
2023-08-22T11:49:26.773Z,33.82
2023-08-22T11:50:30.392Z,33.78
2023-08-22T11:51:32.797Z,33.75
2023-08-22T11:52:36.704Z,33.72
2023-08-22T11:53:39.823Z,33.71
2023-08-22T11:54:46.423Z,33.68
2023-08-22T11:55:56.531Z,33.66
2023-08-22T11:57:02.367Z,33.65
2023-08-22T11:58:05.465Z,33.63
2023-08-22T11:59:10.256Z,33.61
2023-08-22T12:00:14.686Z,33.58
2023-08-22T12:01:18.090Z,33.53
2023-08-22T12:02:21.469Z,33.47
2023-08-22T12:03:24.030Z,33.43
2023-08-22T12:04:26.467Z,33.39
2023-08-22T12:05:42.186Z,33.35
2023-08-22T12:06:59.568Z,33.26
2023-08-22T12:08:22.935Z,33.21
2023-08-22T12:09:25.552Z,33.16
2023-08-22T12:10:45.986Z,33.14
2023-08-22T12:11:48.335Z,33.06
2023-08-22T12:12:52.535Z,33.05
2023-08-22T12:13:55.932Z,32.99
2023-08-22T12:14:58.479Z,32.99
2023-08-22T12:16:00.906Z,32.94
2023-08-22T12:17:03.240Z,32.90
2023-08-22T12:18:06.243Z,32.90
2023-08-22T12:19:13.148Z,32.85
2023-08-22T12:20:15.566Z,32.80
2023-08-22T12:21:18.333Z,32.78
2023-08-22T12:22:20.751Z,32.72
2023-08-22T12:23:23.223Z,32.70
2023-08-22T12:24:25.556Z,32.69
2023-08-22T12:25:28.060Z,32.68
2023-08-22T12:26:31.981Z,32.66
2023-08-22T12:27:36.011Z,32.64
2023-08-22T12:28:38.485Z,32.64
2023-08-22T12:29:42.093Z,32.63
2023-08-22T12:30:44.509Z,32.63
2023-08-22T12:31:46.990Z,32.63
2023-08-22T12:32:49.643Z,32.65
2023-08-22T12:33:52.024Z,32.62
2023-08-22T12:34:54.384Z,32.63
2023-08-22T12:35:56.812Z,32.60
2023-08-22T12:36:59.725Z,32.58
2023-08-22T12:38:03.664Z,32.57
2023-08-22T12:39:06.134Z,32.58
2023-08-22T12:40:12.133Z,32.58
2023-08-22T12:41:14.576Z,32.56
2023-08-22T12:42:16.981Z,32.54
2023-08-22T12:43:19.767Z,32.51
2023-08-22T12:44:22.074Z,32.52
2023-08-22T12:45:24.486Z,32.50
2023-08-22T12:46:27.015Z,32.48
2023-08-22T12:47:29.906Z,32.45
2023-08-22T12:48:34.420Z,32.41
2023-08-22T12:49:36.906Z,32.40
2023-08-22T12:50:39.218Z,32.38
2023-08-22T12:51:41.550Z,32.38
2023-08-22T12:52:44.397Z,32.37
2023-08-22T12:53:47.066Z,32.37
2023-08-22T12:54:49.779Z,32.36
2023-08-22T12:55:52.240Z,32.35
2023-08-22T12:56:57.464Z,32.32
2023-08-22T12:57:59.901Z,32.31
2023-08-22T12:59:02.287Z,32.31
2023-08-22T13:00:05.780Z,32.30
2023-08-22T13:01:09.134Z,32.30
2023-08-22T13:02:11.599Z,32.30
2023-08-22T13:03:14.256Z,32.30
2023-08-22T13:04:16.850Z,32.28
2023-08-22T13:05:19.377Z,32.26
2023-08-22T13:06:22.643Z,32.24
2023-08-22T13:07:25.509Z,32.19
2023-08-22T13:08:28.272Z,32.18
2023-08-22T13:09:30.620Z,32.14
2023-08-22T13:10:32.978Z,32.13
2023-08-22T13:11:35.315Z,32.12
2023-08-22T13:12:38.433Z,32.09
2023-08-22T13:13:40.824Z,32.05
2023-08-22T13:14:43.218Z,32.02
2023-08-22T13:15:46.145Z,31.97
2023-08-22T13:16:48.721Z,31.94
2023-08-22T13:17:51.441Z,31.91
2023-08-22T13:18:53.855Z,31.90
2023-08-22T13:19:57.354Z,31.88
2023-08-22T13:20:59.715Z,31.85
2023-08-22T13:22:02.141Z,31.80
2023-08-22T13:23:05.995Z,31.77
2023-08-22T13:24:10.562Z,31.73
2023-08-22T13:25:12.936Z,31.72
2023-08-22T13:26:15.317Z,31.72
2023-08-22T13:27:19.686Z,31.69
2023-08-22T13:28:22.111Z,31.68
2023-08-22T13:29:25.846Z,31.67
2023-08-22T13:30:29.831Z,31.59
2023-08-22T13:31:32.305Z,31.57
2023-08-22T13:32:35.303Z,31.56
2023-08-22T13:33:37.675Z,31.52
2023-08-22T13:34:40.093Z,31.53
2023-08-22T13:35:42.451Z,31.52
2023-08-22T13:36:44.896Z,31.52
2023-08-22T13:37:47.522Z,31.51
2023-08-22T13:38:50.171Z,31.52
2023-08-22T13:39:52.502Z,31.52
2023-08-22T13:40:54.855Z,31.53
2023-08-22T13:41:57.233Z,31.53
2023-08-22T13:42:59.814Z,31.53
2023-08-22T13:44:02.158Z,31.53